createdAt,value
2023-04-13T00:00:13.388Z,5.83
2023-04-13T00:03:01.735Z,5.80
2023-04-13T00:05:29.204Z,5.77
2023-04-13T00:07:56.360Z,5.75
2023-04-13T00:10:23.441Z,5.74
2023-04-13T00:12:50.444Z,5.72
2023-04-13T00:15:19.143Z,5.72
2023-04-13T00:17:47.141Z,5.71
2023-04-13T00:20:14.364Z,5.71
2023-04-13T00:22:45.158Z,5.70
2023-04-13T00:25:13.896Z,5.70
2023-04-13T00:27:42.077Z,5.71
2023-04-13T00:30:15.793Z,5.71
2023-04-13T00:32:44.222Z,5.72
2023-04-13T00:35:12.244Z,5.73
2023-04-13T00:37:39.395Z,5.75
2023-04-13T00:40:07.807Z,5.75
2023-04-13T00:42:35.403Z,5.75
2023-04-13T00:45:02.711Z,5.75
2023-04-13T00:47:36.367Z,5.75
2023-04-13T00:50:06.944Z,5.75
2023-04-13T00:52:39.713Z,5.73
2023-04-13T00:55:06.797Z,5.71
2023-04-13T00:57:34.511Z,5.70
2023-04-13T01:00:09.206Z,5.68
2023-04-13T01:02:36.548Z,5.68
2023-04-13T01:05:06.351Z,5.65
2023-04-13T01:07:44.454Z,5.63
2023-04-13T01:10:15.504Z,5.60
2023-04-13T01:12:51.173Z,5.57
2023-04-13T01:15:18.522Z,5.54
2023-04-13T01:17:56.410Z,5.51
2023-04-13T01:20:25.917Z,5.47
2023-04-13T01:22:56.972Z,5.45
2023-04-13T01:25:59.728Z,5.39
2023-04-13T01:28:28.349Z,5.33
2023-04-13T01:30:59.714Z,5.31
2023-04-13T01:33:30.001Z,5.30
2023-04-13T01:36:00.152Z,5.26
2023-04-13T01:38:27.167Z,5.20
2023-04-13T01:40:57.810Z,5.21
2023-04-13T01:43:27.217Z,5.21
2023-04-13T01:46:09.621Z,5.19
2023-04-13T01:48:48.443Z,5.16
2023-04-13T01:51:31.865Z,5.15
2023-04-13T01:54:02.667Z,5.12
2023-04-13T01:56:30.678Z,5.07
2023-04-13T01:59:01.745Z,5.01
2023-04-13T02:01:29.655Z,4.96
2023-04-13T02:03:58.713Z,4.88
2023-04-13T02:06:30.533Z,4.81
2023-04-13T02:08:58.868Z,4.73
2023-04-13T02:11:27.120Z,4.64
2023-04-13T02:13:57.025Z,4.56
2023-04-13T02:16:24.720Z,4.50
2023-04-13T02:18:51.735Z,4.45
2023-04-13T02:21:18.981Z,4.40
2023-04-13T02:23:45.968Z,4.34
2023-04-13T02:26:13.835Z,4.29
2023-04-13T02:28:41.891Z,4.22
2023-04-13T02:31:08.976Z,4.17
2023-04-13T02:33:37.172Z,4.12
2023-04-13T02:36:04.848Z,4.02
2023-04-13T02:38:36.922Z,3.95
2023-04-13T02:41:22.557Z,3.86
2023-04-13T02:43:50.215Z,3.77
2023-04-13T02:46:17.789Z,3.70
2023-04-13T02:48:44.843Z,3.65
2023-04-13T02:51:11.894Z,3.61
2023-04-13T02:53:40.893Z,3.60
2023-04-13T02:56:09.208Z,3.58
2023-04-13T02:58:36.224Z,3.58
2023-04-13T03:01:08.817Z,3.56
2023-04-13T03:03:36.168Z,3.53
2023-04-13T03:06:03.524Z,3.52
2023-04-13T03:08:40.793Z,3.53
2023-04-13T03:11:12.673Z,3.51
2023-04-13T03:13:44.430Z,3.48
2023-04-13T03:16:11.589Z,3.48
2023-04-13T03:18:38.948Z,3.48
2023-04-13T03:21:06.870Z,3.49
2023-04-13T03:23:39.407Z,3.52
2023-04-13T03:26:09.489Z,3.55
2023-04-13T03:28:36.316Z,3.55
2023-04-13T03:31:03.470Z,3.58
2023-04-13T03:33:31.355Z,3.62
2023-04-13T03:36:01.016Z,3.62
2023-04-13T03:38:31.966Z,3.61
2023-04-13T03:40:59.113Z,3.61
2023-04-13T03:43:26.806Z,3.59
2023-04-13T03:46:00.961Z,3.57
2023-04-13T03:48:28.065Z,3.57
2023-04-13T03:50:55.656Z,3.59
2023-04-13T03:53:26.024Z,3.61
2023-04-13T03:55:55.344Z,3.65
2023-04-13T03:58:22.913Z,3.69
2023-04-13T04:00:50.339Z,3.74
2023-04-13T04:03:38.057Z,3.78
2023-04-13T04:06:07.280Z,3.79
2023-04-13T04:08:35.377Z,3.84
2023-04-13T04:11:05.808Z,3.89
2023-04-13T04:13:33.065Z,3.94
2023-04-13T04:16:04.615Z,4.00
2023-04-13T04:18:32.544Z,4.06
2023-04-13T04:21:02.413Z,4.12
2023-04-13T04:23:30.199Z,4.15
2023-04-13T04:26:02.860Z,4.18
2023-04-13T04:28:38.224Z,4.23
2023-04-13T04:31:06.891Z,4.26
2023-04-13T04:33:33.804Z,4.30
2023-04-13T04:36:01.227Z,4.33
2023-04-13T04:38:30.036Z,4.35
2023-04-13T04:40:58.996Z,4.38
2023-04-13T04:43:26.668Z,4.41
2023-04-13T04:45:57.013Z,4.43
2023-04-13T04:48:24.512Z,4.46
2023-04-13T04:50:52.328Z,4.51
2023-04-13T04:53:19.695Z,4.54
2023-04-13T04:55:46.641Z,4.53
2023-04-13T04:58:25.191Z,4.53
2023-04-13T05:00:56.625Z,4.50
2023-04-13T05:03:23.685Z,4.51
2023-04-13T05:05:55.255Z,4.52
2023-04-13T05:08:28.010Z,4.53
2023-04-13T05:10:55.561Z,4.56
2023-04-13T05:13:22.767Z,4.60
2023-04-13T05:16:18.956Z,4.66
2023-04-13T05:18:46.343Z,4.71
2023-04-13T05:21:22.489Z,4.77
2023-04-13T05:23:54.663Z,4.81
2023-04-13T05:26:21.540Z,4.86
2023-04-13T05:28:48.466Z,4.92
2023-04-13T05:31:16.135Z,4.98
2023-04-13T05:33:44.148Z,5.05
2023-04-13T05:36:11.011Z,5.12
2023-04-13T05:38:38.565Z,5.22
2023-04-13T05:41:05.646Z,5.32
2023-04-13T05:43:33.992Z,5.43
2023-04-13T05:46:01.299Z,5.57
2023-04-13T05:48:29.014Z,5.71
2023-04-13T05:50:57.714Z,5.85
2023-04-13T05:53:25.650Z,5.98
2023-04-13T05:55:54.148Z,6.12
2023-04-13T05:58:21.566Z,6.25
2023-04-13T06:00:52.517Z,6.38
2023-04-13T06:03:22.589Z,6.48
2023-04-13T06:05:49.655Z,6.56
2023-04-13T06:08:16.453Z,6.64
2023-04-13T06:10:44.318Z,6.71
2023-04-13T06:13:11.877Z,6.78
2023-04-13T06:15:38.888Z,6.83
2023-04-13T06:18:06.125Z,6.89
2023-04-13T06:20:33.481Z,6.97
2023-04-13T06:23:00.435Z,7.05
2023-04-13T06:25:27.652Z,7.11
2023-04-13T06:27:54.654Z,7.14
2023-04-13T06:30:21.739Z,7.18
2023-04-13T06:32:51.414Z,7.22
2023-04-13T06:35:20.568Z,7.29
2023-04-13T06:37:48.417Z,7.36
2023-04-13T06:40:21.531Z,7.42
2023-04-13T06:42:56.402Z,7.42
2023-04-13T06:45:43.662Z,7.43
2023-04-13T06:48:16.609Z,7.44
2023-04-13T06:50:44.233Z,7.50
2023-04-13T06:53:11.884Z,7.58
2023-04-13T06:55:39.548Z,7.66
2023-04-13T06:58:06.842Z,7.77
2023-04-13T07:00:33.748Z,7.86
2023-04-13T07:03:01.393Z,7.97
2023-04-13T07:05:28.315Z,8.03
2023-04-13T07:07:59.301Z,8.05
2023-04-13T07:10:26.741Z,8.07
2023-04-13T07:12:54.345Z,8.08
2023-04-13T07:15:22.449Z,8.12
2023-04-13T07:17:49.818Z,8.19
2023-04-13T07:20:17.264Z,8.30
2023-04-13T07:22:46.282Z,8.46
2023-04-13T07:25:13.203Z,8.60
2023-04-13T07:27:40.118Z,8.73
2023-04-13T07:30:08.492Z,8.86
2023-04-13T07:32:38.453Z,8.98
2023-04-13T07:35:05.924Z,9.08
2023-04-13T07:37:34.657Z,9.19
2023-04-13T07:40:02.291Z,9.27
2023-04-13T07:42:31.305Z,9.36
2023-04-13T07:44:58.349Z,9.41
2023-04-13T07:47:26.403Z,9.59
2023-04-13T07:49:56.391Z,9.77
2023-04-13T07:52:23.424Z,9.90
2023-04-13T07:54:51.276Z,10.05
2023-04-13T07:57:20.854Z,10.20
2023-04-13T07:59:51.111Z,10.38
2023-04-13T08:02:20.971Z,10.55
2023-04-13T08:04:49.092Z,10.77
2023-04-13T08:07:22.380Z,10.97
2023-04-13T08:09:51.922Z,11.08
2023-04-13T08:12:19.189Z,11.19
2023-04-13T08:14:46.702Z,11.32
2023-04-13T08:17:13.847Z,11.44
2023-04-13T08:19:41.005Z,11.61
2023-04-13T08:22:10.056Z,11.77
2023-04-13T08:24:36.983Z,11.91
2023-04-13T08:27:06.812Z,12.07
2023-04-13T08:29:33.741Z,12.15
2023-04-13T08:32:01.151Z,12.35
2023-04-13T08:34:29.185Z,12.40
2023-04-13T08:36:56.860Z,12.49
2023-04-13T08:39:25.529Z,12.63
2023-04-13T08:41:52.786Z,12.90
2023-04-13T08:44:20.843Z,13.20
2023-04-13T08:46:51.329Z,13.41
2023-04-13T08:49:22.879Z,13.51
2023-04-13T08:52:09.353Z,13.69
2023-04-13T08:54:37.009Z,14.32
2023-04-13T08:57:05.932Z,14.53
2023-04-13T08:59:33.776Z,14.60
2023-04-13T09:02:04.237Z,14.72
2023-04-13T09:04:35.766Z,14.87
2023-04-13T09:07:04.272Z,15.10
2023-04-13T09:09:32.093Z,15.66
2023-04-13T09:11:58.917Z,15.97
2023-04-13T09:14:26.570Z,16.00
2023-04-13T09:16:53.468Z,15.75
2023-04-13T09:19:29.749Z,15.65
2023-04-13T09:21:57.170Z,15.49
2023-04-13T09:24:24.150Z,15.16
2023-04-13T09:26:50.980Z,14.97
2023-04-13T09:29:19.811Z,15.05
2023-04-13T09:31:47.918Z,15.30
2023-04-13T09:34:24.926Z,15.61
2023-04-13T09:36:54.519Z,16.18
2023-04-13T09:39:27.073Z,16.39
2023-04-13T09:41:54.489Z,16.41
2023-04-13T09:44:23.974Z,16.57
2023-04-13T09:46:58.508Z,16.69
2023-04-13T09:49:26.351Z,16.81
2023-04-13T09:51:54.055Z,16.93
2023-04-13T09:54:22.193Z,16.89
2023-04-13T09:56:55.286Z,16.85
2023-04-13T09:59:25.635Z,16.84
2023-04-13T10:01:55.767Z,16.71
2023-04-13T10:04:22.699Z,16.64
2023-04-13T10:06:49.593Z,16.72
2023-04-13T10:09:17.170Z,17.17
2023-04-13T10:11:50.209Z,17.52
2023-04-13T10:14:19.841Z,17.47
2023-04-13T10:16:55.849Z,17.50
2023-04-13T10:19:24.408Z,17.24
2023-04-13T10:21:52.058Z,17.10
2023-04-13T10:24:19.605Z,17.13
2023-04-13T10:26:47.125Z,17.24
2023-04-13T10:29:15.966Z,17.73
2023-04-13T10:31:47.311Z,18.46
2023-04-13T10:34:27.613Z,18.86
2023-04-13T10:36:57.494Z,18.63
2023-04-13T10:39:25.350Z,18.25
2023-04-13T10:42:18.679Z,18.09
2023-04-13T10:44:47.033Z,17.83
2023-04-13T10:47:14.964Z,17.69
2023-04-13T10:49:43.059Z,17.67
2023-04-13T10:52:13.116Z,17.80
2023-04-13T10:54:40.732Z,17.79
2023-04-13T10:57:09.203Z,17.42
2023-04-13T10:59:59.235Z,17.38
2023-04-13T11:02:30.155Z,17.40
2023-04-13T11:04:59.018Z,17.50
2023-04-13T11:07:26.345Z,17.62
2023-04-13T11:12:29.454Z,17.79
2023-04-13T11:14:56.355Z,17.55
2023-04-13T11:17:23.479Z,17.87
2023-04-13T11:19:54.787Z,18.04
2023-04-13T11:22:23.333Z,18.02
2023-04-13T11:24:51.026Z,18.11
2023-04-13T11:27:22.640Z,18.21
2023-04-13T11:30:05.989Z,18.37
2023-04-13T11:32:33.659Z,18.44
2023-04-13T11:35:10.312Z,18.34
2023-04-13T11:37:41.321Z,18.39
2023-04-13T11:40:16.929Z,18.32
2023-04-13T11:42:45.685Z,18.38
2023-04-13T11:45:16.300Z,18.45
2023-04-13T11:47:44.137Z,18.58
2023-04-13T11:50:12.972Z,19.00
2023-04-13T11:52:41.364Z,19.23
2023-04-13T11:55:21.400Z,19.38
2023-04-13T11:57:50.679Z,19.20
2023-04-13T12:00:23.513Z,18.77
2023-04-13T12:03:01.758Z,18.76
2023-04-13T12:05:31.649Z,18.85
2023-04-13T12:08:00.067Z,19.04
2023-04-13T12:10:38.535Z,19.27
2023-04-13T12:16:04.424Z,19.34
2023-04-13T12:18:40.110Z,19.49
2023-04-13T12:21:07.398Z,19.74
2023-04-13T12:23:34.490Z,19.81
2023-04-13T12:26:18.838Z,19.80
2023-04-13T12:28:56.889Z,19.79
2023-04-13T12:31:24.102Z,19.94
2023-04-13T12:33:51.121Z,20.55
2023-04-13T12:36:18.020Z,20.91
2023-04-13T12:38:45.390Z,20.89
2023-04-13T12:41:12.304Z,20.58
2023-04-13T12:43:39.228Z,20.57
2023-04-13T12:46:06.038Z,20.46
2023-04-13T12:48:32.940Z,20.39
2023-04-13T12:50:59.811Z,20.20
2023-04-13T12:53:26.750Z,19.84
2023-04-13T12:55:53.739Z,19.52
2023-04-13T12:58:20.689Z,19.40
2023-04-13T13:00:47.636Z,19.14
2023-04-13T13:03:15.418Z,18.84
2023-04-13T13:05:42.777Z,18.76
2023-04-13T13:08:09.717Z,19.04
2023-04-13T13:10:36.766Z,18.89
2023-04-13T13:13:03.650Z,19.17
2023-04-13T13:15:31.239Z,19.49
2023-04-13T13:18:00.349Z,19.78
2023-04-13T13:20:27.319Z,20.35
2023-04-13T13:22:54.253Z,20.64
2023-04-13T13:25:21.199Z,20.82
2023-04-13T13:30:18.058Z,20.54
2023-04-13T13:32:45.077Z,20.56
2023-04-13T13:35:13.564Z,20.25
2023-04-13T13:37:40.377Z,20.11
2023-04-13T13:40:12.320Z,20.09
2023-04-13T13:42:50.556Z,19.98
2023-04-13T13:45:18.659Z,19.97
2023-04-13T13:47:49.339Z,20.12
2023-04-13T13:50:16.241Z,20.32
2023-04-13T13:52:59.224Z,20.33
2023-04-13T13:55:30.345Z,20.39
2023-04-13T13:57:58.271Z,20.60
2023-04-13T14:00:25.229Z,20.78
2023-04-13T14:02:52.496Z,21.15
2023-04-13T14:05:21.413Z,21.38
2023-04-13T14:07:48.464Z,21.51
2023-04-13T14:10:15.593Z,21.55
2023-04-13T14:12:44.238Z,21.76
2023-04-13T14:15:12.124Z,21.66
2023-04-13T14:17:39.604Z,21.46
2023-04-13T14:20:13.511Z,21.45
2023-04-13T14:22:41.333Z,21.49
2023-04-13T14:25:08.826Z,21.69
2023-04-13T14:27:36.420Z,21.94
2023-04-13T14:30:04.673Z,22.19
2023-04-13T14:32:31.900Z,22.37
2023-04-13T14:34:59.781Z,22.66
2023-04-13T14:37:27.291Z,22.70
2023-04-13T14:39:54.599Z,22.60
2023-04-13T14:42:23.786Z,22.69
2023-04-13T14:44:51.353Z,22.66
2023-04-13T14:47:18.920Z,22.35
2023-04-13T14:49:45.964Z,21.74
2023-04-13T14:52:13.787Z,21.44
2023-04-13T14:54:40.739Z,21.22
2023-04-13T14:57:09.289Z,20.91
2023-04-13T14:59:36.720Z,20.72
2023-04-13T15:02:03.938Z,20.51
2023-04-13T15:04:31.391Z,20.17
2023-04-13T15:06:58.643Z,19.99
2023-04-13T15:09:25.440Z,19.76
2023-04-13T15:11:52.526Z,19.72
2023-04-13T15:14:19.578Z,19.79
2023-04-13T15:16:46.579Z,19.83
2023-04-13T15:19:13.452Z,19.78
2023-04-13T15:21:41.118Z,19.47
2023-04-13T15:24:08.633Z,19.29
2023-04-13T15:26:42.093Z,19.26
2023-04-13T15:29:09.112Z,19.06
2023-04-13T15:31:37.126Z,18.93
2023-04-13T15:34:10.622Z,19.00
2023-04-13T15:36:37.809Z,19.06
2023-04-13T15:39:04.739Z,19.10
2023-04-13T15:41:31.609Z,19.07
2023-04-13T15:44:02.823Z,19.09
2023-04-13T15:46:29.941Z,19.19
2023-04-13T15:48:56.988Z,19.24
2023-04-13T15:51:23.996Z,19.12
2023-04-13T15:53:50.922Z,18.96
2023-04-13T15:56:17.728Z,18.91
2023-04-13T15:58:44.614Z,18.94
2023-04-13T16:01:11.706Z,18.92
2023-04-13T16:03:39.788Z,18.89
2023-04-13T16:06:07.334Z,18.84
2023-04-13T16:08:34.259Z,18.78
2023-04-13T16:11:01.358Z,18.64
2023-04-13T16:13:41.170Z,18.44
2023-04-13T16:16:14.736Z,18.29
2023-04-13T16:18:41.835Z,18.18
2023-04-13T16:21:10.308Z,18.10
2023-04-13T16:23:37.669Z,18.01
2023-04-13T16:26:04.534Z,17.91
2023-04-13T16:28:31.386Z,17.82
2023-04-13T16:30:58.422Z,17.74
2023-04-13T16:33:25.553Z,17.67
2023-04-13T16:35:52.455Z,17.60
2023-04-13T16:38:19.594Z,17.55
2023-04-13T16:40:46.426Z,17.48
2023-04-13T16:43:13.341Z,17.41
2023-04-13T16:45:41.553Z,17.27
2023-04-13T16:48:08.406Z,17.08
2023-04-13T16:50:35.362Z,16.80
2023-04-13T16:53:02.293Z,16.53
2023-04-13T16:55:30.722Z,16.33
2023-04-13T16:57:57.586Z,16.12
2023-04-13T17:00:24.824Z,15.92
2023-04-13T17:02:51.798Z,15.72
2023-04-13T17:05:18.713Z,15.54
2023-04-13T17:07:47.609Z,15.37
2023-04-13T17:10:16.915Z,15.20
2023-04-13T17:12:43.834Z,15.04
2023-04-13T17:15:10.716Z,14.88
2023-04-13T17:17:37.686Z,14.73
2023-04-13T17:20:05.409Z,14.57
2023-04-13T17:22:32.295Z,14.40
2023-04-13T17:24:59.169Z,14.21
2023-04-13T17:27:26.204Z,14.02
2023-04-13T17:29:53.174Z,13.82
2023-04-13T17:32:21.215Z,13.64
2023-04-13T17:34:48.857Z,13.47
2023-04-13T17:37:16.942Z,13.29
2023-04-13T17:39:47.057Z,13.12
2023-04-13T17:42:14.715Z,12.92
2023-04-13T17:44:42.198Z,12.73
2023-04-13T17:47:09.522Z,12.57
2023-04-13T17:49:37.133Z,12.41
2023-04-13T17:52:04.060Z,12.26
2023-04-13T17:54:31.123Z,12.15
2023-04-13T17:56:58.027Z,12.07
2023-04-13T17:59:25.267Z,12.01
2023-04-13T18:01:52.949Z,11.92
2023-04-13T18:04:20.540Z,11.85
2023-04-13T18:06:48.007Z,11.78
2023-04-13T18:09:15.169Z,11.68
2023-04-13T18:11:42.206Z,11.57
2023-04-13T18:14:11.520Z,11.48
2023-04-13T18:16:38.738Z,11.42
2023-04-13T18:19:06.170Z,11.37
2023-04-13T18:21:33.423Z,11.33
2023-04-13T18:24:00.815Z,11.29
2023-04-13T18:26:28.346Z,11.25
2023-04-13T18:28:55.395Z,11.20
2023-04-13T18:31:22.818Z,11.14
2023-04-13T18:33:50.056Z,11.09
2023-04-13T18:36:17.775Z,11.02
2023-04-13T18:38:45.604Z,10.95
2023-04-13T18:41:12.836Z,10.86
2023-04-13T18:43:40.140Z,10.78
2023-04-13T18:46:07.420Z,10.70
2023-04-13T18:48:34.704Z,10.61
2023-04-13T18:51:02.601Z,10.54
2023-04-13T18:53:29.488Z,10.47
2023-04-13T18:55:57.414Z,10.41
2023-04-13T18:58:24.313Z,10.36
2023-04-13T19:00:51.342Z,10.30
2023-04-13T19:03:18.501Z,10.26
2023-04-13T19:05:45.808Z,10.22
2023-04-13T19:08:13.538Z,10.17
2023-04-13T19:10:41.217Z,10.12
2023-04-13T19:13:08.179Z,10.06
2023-04-13T19:15:35.334Z,9.98
2023-04-13T19:18:03.630Z,9.91
2023-04-13T19:20:30.609Z,9.84
2023-04-13T19:22:57.403Z,9.80
2023-04-13T19:25:24.519Z,9.76
2023-04-13T19:27:51.514Z,9.72
2023-04-13T19:30:19.182Z,9.70
2023-04-13T19:32:46.963Z,9.66
2023-04-13T19:35:14.041Z,9.61
2023-04-13T19:37:41.572Z,9.56
2023-04-13T19:40:09.433Z,9.54
2023-04-13T19:42:36.490Z,9.52
2023-04-13T19:45:03.598Z,9.48
2023-04-13T19:47:30.535Z,9.44
2023-04-13T19:49:57.549Z,9.39
2023-04-13T19:52:24.708Z,9.34
2023-04-13T19:54:51.655Z,9.30
2023-04-13T19:57:19.122Z,9.24
2023-04-13T19:59:46.146Z,9.16
2023-04-13T20:02:13.068Z,9.05
2023-04-13T20:04:40.564Z,8.99
2023-04-13T20:07:07.891Z,8.93
2023-04-13T20:09:35.025Z,8.82
2023-04-13T20:12:02.053Z,8.67
2023-04-13T20:14:28.939Z,8.54
2023-04-13T20:16:56.000Z,8.44
2023-04-13T20:19:23.923Z,8.35
2023-04-13T20:21:51.306Z,8.23
2023-04-13T20:24:18.404Z,8.13
2023-04-13T20:26:46.434Z,8.04
2023-04-13T20:29:18.529Z,7.96
2023-04-13T20:31:45.439Z,7.90
2023-04-13T20:34:12.990Z,7.84
2023-04-13T20:36:39.999Z,7.79
2023-04-13T20:39:08.971Z,7.75
2023-04-13T20:41:36.213Z,7.70
2023-04-13T20:44:03.525Z,7.64
2023-04-13T20:46:33.855Z,7.56
2023-04-13T20:49:04.595Z,7.52
2023-04-13T20:51:32.527Z,7.47
2023-04-13T20:54:01.247Z,7.43
2023-04-13T20:56:29.236Z,7.39
2023-04-13T20:58:57.271Z,7.33
2023-04-13T21:01:29.736Z,7.33
2023-04-13T21:03:56.666Z,7.33
2023-04-13T21:06:24.148Z,7.32
2023-04-13T21:08:52.349Z,7.30
2023-04-13T21:11:19.320Z,7.28
2023-04-13T21:13:46.734Z,7.26
2023-04-13T21:16:13.844Z,7.27
2023-04-13T21:18:41.714Z,7.27
2023-04-13T21:21:08.707Z,7.28
2023-04-13T21:23:36.887Z,7.28
2023-04-13T21:26:04.030Z,7.25
2023-04-13T21:28:30.910Z,7.19
2023-04-13T21:30:57.940Z,7.16
2023-04-13T21:33:25.206Z,7.11
2023-04-13T21:35:52.195Z,7.08
2023-04-13T21:38:19.020Z,7.06
2023-04-13T21:40:45.879Z,7.06
2023-04-13T21:43:12.800Z,7.07
2023-04-13T21:45:39.701Z,7.10
2023-04-13T21:48:06.595Z,7.13
2023-04-13T21:50:33.558Z,7.20
2023-04-13T21:53:00.353Z,7.26
2023-04-13T21:55:27.345Z,7.32
2023-04-13T21:57:54.351Z,7.37
2023-04-13T22:00:21.988Z,7.43
2023-04-13T22:02:50.645Z,7.49
2023-04-13T22:05:17.728Z,7.56
2023-04-13T22:07:44.660Z,7.62
2023-04-13T22:10:11.784Z,7.65
2023-04-13T22:12:38.660Z,7.68
2023-04-13T22:15:05.772Z,7.70
2023-04-13T22:17:32.811Z,7.72
2023-04-13T22:20:00.145Z,7.73
2023-04-13T22:22:27.019Z,7.74
2023-04-13T22:24:53.935Z,7.75
2023-04-13T22:27:21.242Z,7.75
2023-04-13T22:29:48.102Z,7.75
2023-04-13T22:32:15.969Z,7.76
2023-04-13T22:34:42.771Z,7.77
2023-04-13T22:37:11.716Z,7.78
2023-04-13T22:39:39.119Z,7.79
2023-04-13T22:42:06.229Z,7.80
2023-04-13T22:44:33.836Z,7.82
2023-04-13T22:47:01.092Z,7.82
2023-04-13T22:49:29.374Z,7.84
2023-04-13T22:51:56.433Z,7.87
2023-04-13T22:54:23.581Z,7.90
2023-04-13T22:56:50.740Z,7.93
2023-04-13T22:59:17.892Z,7.96
2023-04-13T23:01:45.151Z,7.99
2023-04-13T23:04:15.032Z,8.01
2023-04-13T23:06:42.640Z,8.04
2023-04-13T23:09:10.441Z,8.08
2023-04-13T23:11:37.573Z,8.10
2023-04-13T23:14:06.150Z,8.07
2023-04-13T23:16:33.674Z,7.94
2023-04-13T23:19:00.865Z,7.77
2023-04-13T23:21:28.641Z,7.60
2023-04-13T23:23:55.696Z,7.43
2023-04-13T23:26:22.733Z,7.27
2023-04-13T23:28:49.738Z,7.16
2023-04-13T23:31:16.724Z,7.08
2023-04-13T23:33:43.802Z,7.01
2023-04-13T23:36:11.366Z,6.96
2023-04-13T23:38:38.255Z,6.89
2023-04-13T23:41:05.131Z,6.79
2023-04-13T23:43:32.037Z,6.70
2023-04-13T23:45:59.037Z,6.67
2023-04-13T23:48:26.709Z,6.64
2023-04-13T23:50:53.841Z,6.62
2023-04-13T23:53:20.755Z,6.62
2023-04-13T23:55:47.707Z,6.62
2023-04-13T23:58:14.866Z,6.63
